createdAt,value
2018-12-03T00:00:06.774Z,40.47
2018-12-03T00:02:40.038Z,38.60
2018-12-03T00:05:12.413Z,39.03
2018-12-03T00:07:45.726Z,38.80
2018-12-03T00:10:18.771Z,40.00
2018-12-03T00:13:05.399Z,36.83
2018-12-03T00:15:37.753Z,38.57
2018-12-03T00:18:10.800Z,37.17
2018-12-03T00:20:43.578Z,39.60
2018-12-03T00:23:16.510Z,42.67
2018-12-03T00:25:50.279Z,37.40
2018-12-03T00:28:23.519Z,39.73
2018-12-03T00:34:18.462Z,37.10
2018-12-03T00:36:53.507Z,41.03
2018-12-03T00:39:26.937Z,31.53
2018-12-03T00:42:03.196Z,41.87
2018-12-03T00:44:37.065Z,37.30
2018-12-03T00:47:11.010Z,35.90
2018-12-03T00:49:44.178Z,35.60
2018-12-03T00:52:20.120Z,36.43
2018-12-03T00:54:53.305Z,40.47
2018-12-03T01:03:40.605Z,42.73
2018-12-03T01:06:15.413Z,40.43
2018-12-03T01:08:47.882Z,42.60
2018-12-03T01:11:20.807Z,57.47
2018-12-03T01:13:54.346Z,52.97
2018-12-03T01:16:29.076Z,47.50
2018-12-03T01:19:01.779Z,40.03
2018-12-03T01:21:35.099Z,43.50
2018-12-03T01:24:09.918Z,46.00
2018-12-03T01:26:43.321Z,45.63
2018-12-03T01:29:15.764Z,42.63
2018-12-03T01:31:53.005Z,35.40
2018-12-03T01:34:24.712Z,35.77
2018-12-03T01:36:59.791Z,39.13
2018-12-03T01:39:33.074Z,40.03
2018-12-03T01:42:06.201Z,36.57
2018-12-03T01:44:38.619Z,38.23
2018-12-03T01:47:12.146Z,44.67
2018-12-03T01:49:44.600Z,41.20
2018-12-03T01:52:18.919Z,41.97
2018-12-03T01:54:52.479Z,42.80
2018-12-03T01:57:25.335Z,46.80
2018-12-03T01:59:57.756Z,36.73
2018-12-03T02:02:30.995Z,40.17
2018-12-03T02:05:03.408Z,46.23
2018-12-03T02:07:36.815Z,48.67
2018-12-03T02:10:12.426Z,47.17
2018-12-03T02:12:48.218Z,42.67
2018-12-03T02:15:22.396Z,51.80
2018-12-03T02:17:57.261Z,46.93
2018-12-03T02:20:31.188Z,47.17
2018-12-03T02:23:04.265Z,42.53
2018-12-03T02:25:36.698Z,50.40
2018-12-03T02:28:13.863Z,46.73
2018-12-03T02:30:47.739Z,41.00
2018-12-03T02:33:23.069Z,46.47
2018-12-03T02:35:55.606Z,40.27
2018-12-03T02:45:22.768Z,36.93
2018-12-03T02:47:55.799Z,37.77
2018-12-03T02:50:31.210Z,46.17
2018-12-03T02:53:05.683Z,47.10
2018-12-03T02:55:39.447Z,43.53
2018-12-03T02:58:15.055Z,44.30
2018-12-03T03:00:50.125Z,44.03
2018-12-03T03:06:57.078Z,50.60
2018-12-03T03:09:56.028Z,44.23
2018-12-03T03:12:41.601Z,44.97
2018-12-03T03:15:15.347Z,40.53
2018-12-03T03:17:49.093Z,43.67
2018-12-03T03:20:21.738Z,44.53
2018-12-03T03:22:55.054Z,45.87
2018-12-03T03:25:28.407Z,46.77
2018-12-03T03:28:02.725Z,45.13
2018-12-03T03:30:36.958Z,51.43
2018-12-03T03:33:10.233Z,49.07
2018-12-03T03:35:43.380Z,45.93
2018-12-03T03:38:16.676Z,46.10
2018-12-03T03:40:49.364Z,47.10
2018-12-03T03:43:22.339Z,45.80
2018-12-03T03:45:57.257Z,44.40
2018-12-03T03:51:52.109Z,58.87
2018-12-03T03:54:38.677Z,47.70
2018-12-03T03:57:13.739Z,50.93
2018-12-03T03:59:46.638Z,51.37
2018-12-03T04:02:19.686Z,47.80
2018-12-03T04:04:52.603Z,47.47
2018-12-03T04:07:32.252Z,47.87
2018-12-03T04:10:08.327Z,72.13
2018-12-03T04:12:46.000Z,45.67
2018-12-03T04:15:19.549Z,48.37
2018-12-03T04:17:53.005Z,56.27
2018-12-03T04:20:25.818Z,51.93
2018-12-03T04:23:00.249Z,51.47
2018-12-03T04:25:33.260Z,79.37
2018-12-03T04:28:06.366Z,80.83
2018-12-03T04:30:39.147Z,54.33
2018-12-03T04:33:14.690Z,58.67
2018-12-03T04:35:48.511Z,101.63
2018-12-03T04:38:24.361Z,54.23
2018-12-03T04:40:57.475Z,49.37
2018-12-03T04:43:30.313Z,56.60
2018-12-03T04:46:03.104Z,49.63
2018-12-03T04:48:35.868Z,47.17
2018-12-03T04:51:08.916Z,51.07
2018-12-03T04:53:41.679Z,62.37
2018-12-03T04:56:14.551Z,43.93
2018-12-03T04:58:47.309Z,42.43
2018-12-03T05:01:21.342Z,47.10
2018-12-03T05:03:54.116Z,43.57
2018-12-03T05:06:27.037Z,42.07
2018-12-03T05:09:00.490Z,42.43
2018-12-03T05:11:33.239Z,43.53
2018-12-03T05:17:28.126Z,43.90
2018-12-03T05:20:00.696Z,44.50
2018-12-03T05:22:33.257Z,45.40
2018-12-03T05:25:06.025Z,45.80
2018-12-03T05:27:38.995Z,49.33
2018-12-03T05:30:13.896Z,52.50
2018-12-03T05:32:47.098Z,51.57
2018-12-03T05:35:21.331Z,49.13
2018-12-03T05:37:54.110Z,48.33
2018-12-03T05:40:30.353Z,48.23
2018-12-03T05:43:02.896Z,48.03
2018-12-03T05:45:35.390Z,47.50
2018-12-03T05:48:08.234Z,47.67
2018-12-03T05:50:40.823Z,42.90
2018-12-03T05:53:13.308Z,46.60
2018-12-03T05:55:45.943Z,46.40
2018-12-03T05:58:18.424Z,45.83
2018-12-03T06:00:51.019Z,54.43
2018-12-03T06:03:24.295Z,55.87
2018-12-03T06:05:56.832Z,39.83
2018-12-03T06:08:29.600Z,42.07
2018-12-03T06:11:02.165Z,41.50
2018-12-03T06:13:34.829Z,40.47
2018-12-03T06:16:07.323Z,39.40
2018-12-03T06:18:41.137Z,41.00
2018-12-03T06:21:13.642Z,64.20
2018-12-03T06:23:46.165Z,42.83
2018-12-03T06:26:18.655Z,45.93
2018-12-03T06:28:51.144Z,51.70
2018-12-03T06:31:23.638Z,45.50
2018-12-03T06:33:56.599Z,41.07
2018-12-03T06:36:29.555Z,50.80
2018-12-03T06:39:02.092Z,57.23
2018-12-03T06:41:34.694Z,45.13
2018-12-03T06:44:07.432Z,45.40
2018-12-03T06:46:40.094Z,48.30
2018-12-03T06:49:12.668Z,50.70
2018-12-03T06:51:45.165Z,47.93
2018-12-03T06:54:17.661Z,51.23
2018-12-03T06:56:50.242Z,59.60
2018-12-03T06:59:22.723Z,53.77
2018-12-03T07:01:55.257Z,55.73
2018-12-03T07:04:27.653Z,55.53
2018-12-03T07:07:00.294Z,51.20
2018-12-03T07:09:32.903Z,57.50
2018-12-03T07:12:05.547Z,54.23
2018-12-03T07:14:38.106Z,50.00
2018-12-03T07:17:10.754Z,52.07
2018-12-03T07:19:43.480Z,50.67
2018-12-03T07:22:16.027Z,50.53
2018-12-03T07:24:48.542Z,55.43
2018-12-03T07:27:21.045Z,68.53
2018-12-03T07:29:53.542Z,51.97
2018-12-03T07:33:13.262Z,52.30
2018-12-03T07:35:46.280Z,49.03
2018-12-03T07:38:19.240Z,53.50
2018-12-03T07:40:52.124Z,53.87
2018-12-03T07:43:24.967Z,52.80
2018-12-03T07:45:57.832Z,53.77
2018-12-03T07:48:31.603Z,70.23
2018-12-03T07:51:04.480Z,55.97
2018-12-03T07:53:37.325Z,78.90
2018-12-03T07:56:10.579Z,66.27
2018-12-03T07:58:43.557Z,97.40
2018-12-03T08:01:18.002Z,70.93
2018-12-03T08:03:51.805Z,55.93
2018-12-03T08:06:24.584Z,62.93
2018-12-03T08:08:57.729Z,62.87
2018-12-03T08:12:00.506Z,53.23
2018-12-03T08:14:33.933Z,52.27
2018-12-03T08:17:07.082Z,64.50
2018-12-03T08:19:39.963Z,52.43
2018-12-03T08:22:15.123Z,53.83
2018-12-03T08:24:48.194Z,57.97
2018-12-03T08:27:21.354Z,54.23
2018-12-03T08:29:54.276Z,53.67
2018-12-03T08:32:27.404Z,57.47
2018-12-03T08:35:00.556Z,53.83
2018-12-03T08:37:34.358Z,50.10
2018-12-03T08:40:07.879Z,51.10
2018-12-03T08:42:44.965Z,64.57
2018-12-03T08:45:20.435Z,54.27
2018-12-03T08:47:53.741Z,53.80
2018-12-03T08:50:29.207Z,54.53
2018-12-03T08:53:02.437Z,54.03
2018-12-03T08:55:35.389Z,52.43
2018-12-03T09:01:28.443Z,53.87
2018-12-03T09:04:09.286Z,55.20
2018-12-03T09:06:41.859Z,57.70
2018-12-03T09:09:16.785Z,55.63
2018-12-03T09:11:51.028Z,58.53
2018-12-03T09:14:28.688Z,54.63
2018-12-03T09:17:02.576Z,59.93
2018-12-03T09:19:34.608Z,58.00
2018-12-03T09:22:07.367Z,58.47
2018-12-03T09:24:40.524Z,56.53
2018-12-03T09:27:14.022Z,54.23
2018-12-03T09:29:46.551Z,54.73
2018-12-03T09:32:20.732Z,56.17
2018-12-03T09:34:53.276Z,55.53
2018-12-03T09:37:26.772Z,55.17
2018-12-03T09:39:59.294Z,56.13
2018-12-03T09:42:35.891Z,55.17
2018-12-03T09:45:14.501Z,57.23
2018-12-03T09:47:47.236Z,58.40
2018-12-03T09:50:24.474Z,56.77
2018-12-03T09:52:57.526Z,55.47
2018-12-03T09:55:32.184Z,54.40
2018-12-03T09:58:10.359Z,56.77
2018-12-03T10:00:43.082Z,53.77
2018-12-03T10:03:18.464Z,52.17
2018-12-03T10:05:53.567Z,52.83
2018-12-03T10:08:30.535Z,65.43
2018-12-03T10:11:04.529Z,47.03
2018-12-03T10:13:36.954Z,40.53
2018-12-03T10:16:09.505Z,38.80
2018-12-03T10:18:42.685Z,29.67
2018-12-03T10:21:15.167Z,26.17
2018-12-03T10:23:47.989Z,26.77
2018-12-03T10:26:20.836Z,31.57
2018-12-03T10:28:53.258Z,27.00
2018-12-03T10:31:25.679Z,15.67
2018-12-03T10:33:58.090Z,36.10
2018-12-03T10:40:01.866Z,56.87
2018-12-03T10:45:55.283Z,50.20
2018-12-03T10:48:27.593Z,28.07
2018-12-03T10:50:59.855Z,19.00
2018-12-03T10:53:33.928Z,13.23
2018-12-03T10:56:06.475Z,12.37
2018-12-03T10:58:40.099Z,13.13
2018-12-03T11:01:26.606Z,13.80
2018-12-03T11:04:02.147Z,11.67
2018-12-03T11:06:34.498Z,11.10
2018-12-03T11:09:07.717Z,16.07
2018-12-03T11:11:40.408Z,15.50
2018-12-03T11:14:12.710Z,18.80
2018-12-03T11:16:45.063Z,16.83
2018-12-03T11:19:17.688Z,17.50
2018-12-03T11:21:50.907Z,18.43
2018-12-03T11:24:23.393Z,19.73
2018-12-03T11:26:59.133Z,18.67
2018-12-03T11:29:31.896Z,19.33
2018-12-03T11:32:04.231Z,17.03
2018-12-03T11:34:36.517Z,19.13
2018-12-03T11:37:10.394Z,17.50
2018-12-03T11:39:49.519Z,19.10
2018-12-03T11:42:21.974Z,34.67
2018-12-03T11:44:54.308Z,38.73
2018-12-03T11:47:26.648Z,41.57
2018-12-03T11:49:58.981Z,22.53
2018-12-03T11:52:31.821Z,28.30
2018-12-03T11:55:04.181Z,51.27
2018-12-03T11:57:36.560Z,76.70
2018-12-03T12:00:12.652Z,63.73
2018-12-03T12:02:45.720Z,53.03
2018-12-03T12:05:18.421Z,46.47
2018-12-03T12:08:35.212Z,49.43
2018-12-03T12:11:08.036Z,43.00
2018-12-03T12:13:40.464Z,41.87
2018-12-03T12:16:12.939Z,39.37
2018-12-03T12:18:45.352Z,36.37
2018-12-03T12:21:17.724Z,35.17
2018-12-03T12:23:50.124Z,35.50
2018-12-03T12:26:22.458Z,37.67
2018-12-03T12:28:55.835Z,38.53
2018-12-03T12:31:32.322Z,36.10
2018-12-03T12:34:05.139Z,35.30
2018-12-03T12:36:37.725Z,32.57
2018-12-03T12:39:12.906Z,31.60
2018-12-03T12:41:45.873Z,25.17
2018-12-03T12:44:18.281Z,37.73
2018-12-03T12:46:52.584Z,46.87
2018-12-03T12:49:25.042Z,46.57
2018-12-03T12:51:57.444Z,43.87
2018-12-03T12:54:29.754Z,43.50
2018-12-03T12:57:02.177Z,44.80
2018-12-03T12:59:34.639Z,47.47
2018-12-03T13:02:07.227Z,48.50
2018-12-03T13:04:39.847Z,49.23
2018-12-03T13:07:12.372Z,43.90
2018-12-03T13:09:44.848Z,41.63
2018-12-03T13:12:17.278Z,41.67
2018-12-03T13:14:49.750Z,44.50
2018-12-03T13:17:22.193Z,31.80
2018-12-03T13:19:54.514Z,25.97
2018-12-03T13:22:36.888Z,23.27
2018-12-03T13:25:23.041Z,24.40
2018-12-03T13:28:00.046Z,26.77
2018-12-03T13:30:35.691Z,25.13
2018-12-03T13:33:09.432Z,22.60
2018-12-03T13:35:44.219Z,21.77
2018-12-03T13:38:18.194Z,19.40
2018-12-03T13:40:51.028Z,17.63
2018-12-03T13:43:24.062Z,21.00
2018-12-03T13:45:57.599Z,21.23
2018-12-03T13:48:30.064Z,21.73
2018-12-03T13:51:02.511Z,21.13
2018-12-03T13:53:34.976Z,18.57
2018-12-03T13:56:19.855Z,18.20
2018-12-03T13:58:57.503Z,20.47
2018-12-03T14:01:38.572Z,18.87
2018-12-03T14:04:18.556Z,20.50
2018-12-03T14:07:04.185Z,28.70
2018-12-03T14:10:17.742Z,27.70
2018-12-03T14:13:05.577Z,20.03
2018-12-03T14:16:08.552Z,21.20
2018-12-03T14:18:57.648Z,17.23
2018-12-03T14:24:52.209Z,14.70
2018-12-03T14:27:39.209Z,13.30
2018-12-03T14:30:14.726Z,11.80
2018-12-03T14:32:48.022Z,11.60
2018-12-03T14:35:20.704Z,14.40
2018-12-03T14:37:58.039Z,13.13
2018-12-03T14:40:31.367Z,11.00
2018-12-03T14:43:03.500Z,13.43
2018-12-03T14:45:38.403Z,13.13
2018-12-03T14:48:14.318Z,12.33
2018-12-03T14:50:46.440Z,13.10
2018-12-03T14:53:19.917Z,11.87
2018-12-03T14:55:53.501Z,13.50
2018-12-03T14:58:25.618Z,12.23
2018-12-03T15:00:57.884Z,11.57
2018-12-03T15:03:31.166Z,10.10
2018-12-03T15:06:03.414Z,11.43
2018-12-03T15:08:35.968Z,9.80
2018-12-03T15:11:08.380Z,12.83
2018-12-03T15:13:40.792Z,12.40
2018-12-03T15:16:14.146Z,14.78
2018-12-03T15:22:08.840Z,14.18
2018-12-03T15:24:57.163Z,14.18
2018-12-03T15:27:29.839Z,14.00
2018-12-03T15:30:12.816Z,13.62
2018-12-03T15:37:01.877Z,12.35
2018-12-03T15:42:58.167Z,11.05
2018-12-03T15:45:36.567Z,10.85
2018-12-03T15:48:21.010Z,10.55
2018-12-03T15:50:55.631Z,9.73
2018-12-03T15:53:28.168Z,9.98
2018-12-03T15:56:00.745Z,9.55
2018-12-03T15:58:33.357Z,11.18
2018-12-03T16:01:14.430Z,13.60
2018-12-03T16:03:43.382Z,12.47
2018-12-03T16:06:16.321Z,13.43
2018-12-03T16:08:48.951Z,10.38
2018-12-03T16:11:21.826Z,10.80
2018-12-03T16:13:54.692Z,10.93
2018-12-03T16:16:27.169Z,14.95
2018-12-03T16:18:59.820Z,12.58
2018-12-03T16:21:33.937Z,12.53
2018-12-03T16:24:06.418Z,14.43
2018-12-03T16:26:41.468Z,12.78
2018-12-03T16:29:18.557Z,16.40
2018-12-03T16:31:53.740Z,10.75
2018-12-03T16:34:32.435Z,13.48
2018-12-03T16:37:05.859Z,10.08
2018-12-03T16:39:43.010Z,10.82
2018-12-03T16:42:16.987Z,11.48
2018-12-03T16:44:49.285Z,10.98
2018-12-03T16:47:21.632Z,10.58
2018-12-03T16:49:59.964Z,10.53
2018-12-03T16:52:32.899Z,10.40
2018-12-03T16:55:15.574Z,10.13
2018-12-03T16:57:48.691Z,9.63
2018-12-03T17:00:21.215Z,13.90
2018-12-03T17:02:57.557Z,12.10
2018-12-03T17:05:30.824Z,11.00
2018-12-03T17:08:03.858Z,11.18
2018-12-03T17:10:36.266Z,11.97
2018-12-03T17:13:11.775Z,11.03
2018-12-03T17:15:44.323Z,10.53
2018-12-03T17:21:48.791Z,16.30
2018-12-03T17:24:32.359Z,14.43
2018-12-03T17:27:07.885Z,11.35
2018-12-03T17:29:42.269Z,12.65
2018-12-03T17:32:15.591Z,8.85
2018-12-03T17:34:52.304Z,10.63
2018-12-03T17:37:25.690Z,15.20
2018-12-03T17:39:58.728Z,14.15
2018-12-03T17:42:33.845Z,10.75
2018-12-03T17:45:14.374Z,10.50
2018-12-03T17:47:47.863Z,17.12
2018-12-03T17:50:21.866Z,13.45
2018-12-03T17:52:56.513Z,12.55
2018-12-03T17:55:29.467Z,11.97
2018-12-03T17:58:02.407Z,10.80
2018-12-03T18:00:35.229Z,8.70
2018-12-03T18:03:09.145Z,9.13
2018-12-03T18:05:43.701Z,34.75
2018-12-03T18:08:17.198Z,14.25
2018-12-03T18:10:52.539Z,45.63
2018-12-03T18:13:26.444Z,47.65
2018-12-03T18:15:59.740Z,14.78
2018-12-03T18:18:38.596Z,29.40
2018-12-03T18:21:11.773Z,17.90
2018-12-03T18:23:45.130Z,21.75
2018-12-03T18:26:17.861Z,7.67
2018-12-03T18:28:51.217Z,13.83
2018-12-03T18:31:24.351Z,12.18
2018-12-03T18:33:57.903Z,9.08
2018-12-03T18:36:30.998Z,10.25
2018-12-03T18:39:04.813Z,6.92
2018-12-03T18:41:46.751Z,10.88
2018-12-03T18:44:29.350Z,8.53
2018-12-03T18:47:25.219Z,8.13
2018-12-03T18:50:05.031Z,8.38
2018-12-03T18:52:49.580Z,12.15
2018-12-03T19:22:11.022Z,8.48
2018-12-03T19:24:57.136Z,8.48
2018-12-03T19:30:50.320Z,9.20
2018-12-03T19:33:30.069Z,9.03
2018-12-03T19:36:04.285Z,10.40
2018-12-03T19:38:36.795Z,11.03
2018-12-03T19:41:09.780Z,10.95
2018-12-03T19:43:42.226Z,9.60
2018-12-03T19:46:16.589Z,9.40
2018-12-03T19:48:56.194Z,11.28
2018-12-03T19:51:35.400Z,9.40
2018-12-03T19:54:13.533Z,11.73
2018-12-03T20:02:33.460Z,11.48
2018-12-03T20:05:23.874Z,13.75
2018-12-03T20:07:58.257Z,9.63
2018-12-03T20:10:38.153Z,10.78
2018-12-03T20:13:11.718Z,9.33
2018-12-03T20:15:50.361Z,9.15
2018-12-03T20:18:23.247Z,11.53
2018-12-03T20:21:01.702Z,11.73
2018-12-03T20:23:38.298Z,9.43
2018-12-03T20:26:21.778Z,9.35
2018-12-03T20:29:08.397Z,11.43
2018-12-03T20:32:21.200Z,8.28
2018-12-03T20:35:08.230Z,9.20
2018-12-03T20:39:55.592Z,8.28
2018-12-03T20:42:33.059Z,11.83
2018-12-03T20:45:20.147Z,10.18
2018-12-03T20:48:03.502Z,10.83
2018-12-03T20:50:55.828Z,8.03
2018-12-03T20:53:55.803Z,18.15
2018-12-03T20:57:00.015Z,10.23
2018-12-03T21:04:20.790Z,15.03
2018-12-03T21:06:59.960Z,10.30
2018-12-03T21:09:37.320Z,9.43
2018-12-03T21:15:37.703Z,9.73
2018-12-03T21:18:10.536Z,10.47
2018-12-03T21:20:52.930Z,11.08
2018-12-03T21:23:37.632Z,12.47
2018-12-03T21:26:19.093Z,13.03
2018-12-03T21:29:01.145Z,11.60
2018-12-03T21:31:37.313Z,12.35
2018-12-03T21:34:10.576Z,18.20
2018-12-03T21:36:44.686Z,15.87
2018-12-03T21:39:20.032Z,12.53
2018-12-03T21:41:53.374Z,10.97
2018-12-03T21:44:25.919Z,13.27
2018-12-03T21:47:00.189Z,15.73
2018-12-03T21:49:35.019Z,14.90
2018-12-03T21:52:08.978Z,25.03
2018-12-03T21:54:42.278Z,14.27
2018-12-03T21:57:15.234Z,18.70
2018-12-03T21:59:47.997Z,17.67
2018-12-03T22:02:24.042Z,20.47
2018-12-03T22:04:56.102Z,13.78
2018-12-03T22:07:29.393Z,18.23
2018-12-03T22:10:01.935Z,17.07
2018-12-03T22:12:35.044Z,20.30
2018-12-03T22:15:08.084Z,19.10
2018-12-03T22:17:41.404Z,23.50
2018-12-03T22:20:14.903Z,21.90
2018-12-03T22:22:48.356Z,23.93
2018-12-03T22:25:21.975Z,24.10
2018-12-03T22:27:54.897Z,29.97
2018-12-03T22:30:27.433Z,22.33
2018-12-03T22:33:00.148Z,24.20
2018-12-03T22:35:32.633Z,21.43
2018-12-03T22:38:05.976Z,33.97
2018-12-03T22:40:38.479Z,30.20
2018-12-03T22:43:11.602Z,24.73
2018-12-03T22:45:44.177Z,24.30
2018-12-03T22:48:17.410Z,22.97
2018-12-03T22:50:50.086Z,30.00
2018-12-03T22:53:23.425Z,29.43
2018-12-03T22:55:56.085Z,25.63
2018-12-03T22:58:28.836Z,24.90
2018-12-03T23:01:05.683Z,29.63
2018-12-03T23:03:39.997Z,29.10
2018-12-03T23:06:12.577Z,30.27
2018-12-03T23:08:45.741Z,35.00
2018-12-03T23:11:18.316Z,36.00
2018-12-03T23:13:52.455Z,32.17
2018-12-03T23:16:25.096Z,39.93
2018-12-03T23:18:58.489Z,34.77
2018-12-03T23:21:31.117Z,46.40
2018-12-03T23:24:04.049Z,36.13
2018-12-03T23:26:36.591Z,35.87
2018-12-03T23:29:09.716Z,44.50
2018-12-03T23:31:42.262Z,42.77
2018-12-03T23:34:15.180Z,40.00
2018-12-03T23:36:47.789Z,39.70
2018-12-03T23:39:21.364Z,39.97
2018-12-03T23:41:53.998Z,39.57
2018-12-03T23:44:27.292Z,40.70
2018-12-03T23:47:00.066Z,39.83
2018-12-03T23:49:33.349Z,46.40
2018-12-03T23:52:06.703Z,43.00
2018-12-03T23:54:41.040Z,47.60
2018-12-03T23:57:14.819Z,43.27
2018-12-03T23:59:47.830Z,42.47
